createdAt,value
2022-10-18T00:00:04.052Z,101885.09
2022-10-18T00:02:31.184Z,101881.75
2022-10-18T00:04:58.200Z,101870.50
2022-10-18T00:07:24.905Z,101864.63
2022-10-18T00:09:51.545Z,101847.00
2022-10-18T00:12:18.494Z,101850.75
2022-10-18T00:14:45.114Z,101863.97
2022-10-18T00:17:11.833Z,101857.91
2022-10-18T00:19:38.777Z,101859.06
2022-10-18T00:22:05.397Z,101850.34
2022-10-18T00:24:32.015Z,101834.41
2022-10-18T00:26:58.967Z,101849.69
2022-10-18T00:29:25.668Z,101835.78
2022-10-18T00:31:52.282Z,101820.41
2022-10-18T00:34:19.248Z,101840.44
2022-10-18T00:36:45.922Z,101842.28
2022-10-18T00:39:16.944Z,101840.59
2022-10-18T00:41:44.571Z,101837.25
2022-10-18T00:44:11.121Z,101833.87
2022-10-18T00:46:46.802Z,101835.69
2022-10-18T00:49:27.585Z,101832.22
2022-10-18T00:52:17.110Z,101837.00
2022-10-18T00:54:46.351Z,101833.34
2022-10-18T00:57:14.297Z,101838.69
2022-10-18T00:59:42.776Z,101829.13
2022-10-18T01:02:10.319Z,101833.50
2022-10-18T01:04:37.285Z,101827.72
2022-10-18T01:07:37.869Z,101832.78
2022-10-18T01:10:17.155Z,101812.16
2022-10-18T01:13:12.961Z,101829.25
2022-10-18T01:18:34.698Z,101807.22
2022-10-18T01:21:09.403Z,101793.63
2022-10-18T01:23:54.557Z,101803.69
2022-10-18T01:26:39.738Z,101802.03
2022-10-18T01:29:17.421Z,101795.47
2022-10-18T01:31:49.520Z,101803.00
2022-10-18T01:34:19.260Z,101804.00
2022-10-18T01:36:53.796Z,101803.31
2022-10-18T01:39:29.495Z,101785.09
2022-10-18T01:41:59.508Z,101775.84
2022-10-18T01:44:29.649Z,101792.13
2022-10-18T01:46:57.496Z,101779.75
2022-10-18T01:49:24.913Z,101761.00
2022-10-18T01:51:51.771Z,101772.56
2022-10-18T01:54:24.659Z,101767.09
2022-10-18T01:57:08.449Z,101771.59
2022-10-18T01:59:41.428Z,101760.25
2022-10-18T02:02:30.248Z,101752.25
2022-10-18T02:05:09.726Z,101750.25
2022-10-18T02:08:19.201Z,101755.75
2022-10-18T02:10:58.435Z,101748.56
2022-10-18T02:13:30.493Z,101743.38
2022-10-18T02:16:01.650Z,101742.53
2022-10-18T02:18:36.425Z,101741.72
2022-10-18T02:21:08.100Z,101741.00
2022-10-18T02:23:35.966Z,101746.34
2022-10-18T02:26:03.011Z,101722.41
2022-10-18T02:28:30.147Z,101728.84
2022-10-18T02:31:11.940Z,101732.47
2022-10-18T02:33:55.730Z,101735.31
2022-10-18T02:36:30.559Z,101739.09
2022-10-18T02:39:03.739Z,101742.75
2022-10-18T02:41:31.097Z,101740.38
2022-10-18T02:43:58.004Z,101717.28
2022-10-18T02:46:24.864Z,101738.56
2022-10-18T02:48:51.754Z,101724.53
2022-10-18T02:51:18.602Z,101720.81
2022-10-18T02:53:45.210Z,101716.69
2022-10-18T02:56:11.852Z,101718.53
2022-10-18T02:58:38.758Z,101713.34
2022-10-18T03:01:05.557Z,101690.53
2022-10-18T03:03:32.249Z,101712.50
2022-10-18T03:05:59.155Z,101708.84
2022-10-18T03:08:26.170Z,101700.16
2022-10-18T03:10:52.851Z,101682.53
2022-10-18T03:13:20.219Z,101686.97
2022-10-18T03:15:48.341Z,101689.62
2022-10-18T03:18:15.678Z,101689.94
2022-10-18T03:20:42.720Z,101688.09
2022-10-18T03:23:09.387Z,101671.03
2022-10-18T03:25:36.034Z,101686.28
2022-10-18T03:28:03.248Z,101690.75
2022-10-18T03:30:29.897Z,101685.28
2022-10-18T03:32:56.576Z,101677.34
2022-10-18T03:35:23.698Z,101683.63
2022-10-18T03:37:50.644Z,101688.09
2022-10-18T03:40:17.615Z,101678.91
2022-10-18T03:42:44.662Z,101690.09
2022-10-18T03:45:11.370Z,101684.91
2022-10-18T03:47:38.284Z,101646.56
2022-10-18T03:50:05.782Z,101676.22
2022-10-18T03:52:32.713Z,101681.09
2022-10-18T03:54:59.750Z,101662.34
2022-10-18T03:57:26.728Z,101671.56
2022-10-18T03:59:53.377Z,101654.78
2022-10-18T04:02:20.039Z,101673.56
2022-10-18T04:04:46.976Z,101651.44
2022-10-18T04:07:13.587Z,101659.53
2022-10-18T04:09:40.197Z,101659.38
2022-10-18T04:12:07.135Z,101651.53
2022-10-18T04:14:33.861Z,101638.13
2022-10-18T04:17:00.569Z,101651.53
2022-10-18T04:19:27.790Z,101648.53
2022-10-18T04:21:54.458Z,101648.53
2022-10-18T04:24:21.212Z,101651.38
2022-10-18T04:26:48.186Z,101648.84
2022-10-18T04:29:14.914Z,101631.25
2022-10-18T04:31:41.537Z,101637.50
2022-10-18T04:34:09.734Z,101634.84
2022-10-18T04:36:36.638Z,101648.84
2022-10-18T04:39:03.437Z,101620.28
2022-10-18T04:41:30.514Z,101636.50
2022-10-18T04:43:57.172Z,101633.97
2022-10-18T04:46:23.895Z,101624.84
2022-10-18T04:48:50.817Z,101614.19
2022-10-18T04:51:17.433Z,101609.81
2022-10-18T04:53:44.026Z,101616.03
2022-10-18T04:56:10.933Z,101604.38
2022-10-18T04:58:37.566Z,101596.97
2022-10-18T05:01:07.847Z,101601.56
2022-10-18T05:03:35.157Z,101591.47
2022-10-18T05:06:03.153Z,101596.88
2022-10-18T05:08:30.852Z,101604.13
2022-10-18T05:10:57.925Z,101603.81
2022-10-18T05:13:25.026Z,101606.84
2022-10-18T05:15:51.782Z,101605.72
2022-10-18T05:18:18.748Z,101598.41
2022-10-18T05:20:46.587Z,101608.78
2022-10-18T05:23:13.224Z,101605.94
2022-10-18T05:25:41.753Z,101593.91
2022-10-18T05:28:21.095Z,101598.09
2022-10-18T05:30:55.902Z,101605.47
2022-10-18T05:33:22.559Z,101608.88
2022-10-18T05:35:49.226Z,101603.84
2022-10-18T05:38:16.269Z,101610.56
2022-10-18T05:40:42.898Z,101614.78
2022-10-18T05:43:09.590Z,101614.47
2022-10-18T05:45:36.860Z,101631.16
2022-10-18T05:48:05.025Z,101621.19
2022-10-18T05:50:35.487Z,101627.34
2022-10-18T05:53:12.265Z,101632.69
2022-10-18T05:55:39.522Z,101617.66
2022-10-18T05:58:06.687Z,101628.31
2022-10-18T06:00:33.372Z,101626.19
2022-10-18T06:03:00.629Z,101606.31
2022-10-18T06:16:31.963Z,101615.00
2022-10-18T06:19:00.077Z,101615.00
2022-10-18T06:21:27.138Z,101612.69
2022-10-18T06:23:56.216Z,101613.19
2022-10-18T06:26:23.284Z,101623.41
2022-10-18T06:28:50.022Z,101618.06
2022-10-18T06:31:17.171Z,101608.00
2022-10-18T06:33:45.618Z,101617.06
2022-10-18T06:36:18.357Z,101614.06
2022-10-18T06:38:45.509Z,101619.41
2022-10-18T06:41:12.284Z,101620.06
2022-10-18T06:43:39.050Z,101590.66
2022-10-18T06:46:08.190Z,101609.53
2022-10-18T06:48:36.469Z,101601.19
2022-10-18T06:51:05.795Z,101606.41
2022-10-18T06:53:35.240Z,101594.22
2022-10-18T06:56:06.146Z,101599.06
2022-10-18T06:58:34.059Z,101601.09
2022-10-18T07:01:09.796Z,101599.13
2022-10-18T07:03:37.014Z,101594.59
2022-10-18T07:06:09.715Z,101580.72
2022-10-18T07:08:37.689Z,101579.53
2022-10-18T07:11:06.248Z,101588.78
2022-10-18T07:13:34.203Z,101582.78
2022-10-18T07:16:17.253Z,101584.62
2022-10-18T07:18:51.336Z,101566.56
2022-10-18T07:21:20.758Z,101581.63
2022-10-18T07:23:48.639Z,101571.28
2022-10-18T07:26:23.193Z,101575.13
2022-10-18T07:28:55.199Z,101570.09
2022-10-18T07:31:23.064Z,101563.25
2022-10-18T07:33:50.472Z,101569.25
2022-10-18T07:36:17.615Z,101565.94
2022-10-18T07:38:44.884Z,101570.44
2022-10-18T07:41:13.849Z,101565.22
2022-10-18T07:43:46.479Z,101565.06
2022-10-18T07:46:14.925Z,101560.66
2022-10-18T07:48:41.768Z,101555.81
2022-10-18T07:51:09.260Z,101546.22
2022-10-18T07:53:36.715Z,101544.88
2022-10-18T07:56:08.749Z,101541.34
2022-10-18T07:58:37.238Z,101546.84
2022-10-18T08:01:06.409Z,101537.12
2022-10-18T08:03:35.073Z,101531.41
2022-10-18T08:06:02.525Z,101538.06
2022-10-18T08:08:30.151Z,101528.31
2022-10-18T08:11:12.852Z,101526.09
2022-10-18T08:13:39.749Z,101519.19
2022-10-18T08:16:09.601Z,101501.91
2022-10-18T08:18:36.935Z,101517.09
2022-10-18T08:21:05.860Z,101519.41
2022-10-18T08:23:33.352Z,101515.91
2022-10-18T08:26:06.418Z,101508.97
2022-10-18T08:28:36.268Z,101495.38
2022-10-18T08:31:07.947Z,101490.50
2022-10-18T08:33:36.276Z,101492.47
2022-10-18T08:36:05.941Z,101491.28
2022-10-18T08:38:37.837Z,101491.75
2022-10-18T08:41:23.695Z,101500.06
2022-10-18T08:44:22.878Z,101494.66
2022-10-18T08:46:58.803Z,101485.22
2022-10-18T08:49:30.004Z,101476.16
2022-10-18T08:51:58.182Z,101483.78
2022-10-18T08:54:33.701Z,101472.31
2022-10-18T08:57:03.146Z,101466.94
2022-10-18T08:59:39.366Z,101461.66
2022-10-18T09:02:22.916Z,101461.84
2022-10-18T09:05:01.179Z,101460.72
2022-10-18T09:07:41.000Z,101456.09
2022-10-18T09:10:27.145Z,101459.53
2022-10-18T09:13:16.308Z,101456.28
2022-10-18T09:15:59.804Z,101450.78
2022-10-18T09:18:59.286Z,101442.66
2022-10-18T09:21:41.242Z,101436.22
2022-10-18T09:24:13.940Z,101438.03
2022-10-18T09:26:46.886Z,101436.31
2022-10-18T09:29:32.737Z,101434.09
2022-10-18T09:32:06.658Z,101426.50
2022-10-18T09:34:43.224Z,101423.22
2022-10-18T09:37:14.574Z,101421.84
2022-10-18T09:39:42.974Z,101398.63
2022-10-18T09:42:30.158Z,101391.84
2022-10-18T09:45:02.123Z,101400.81
2022-10-18T09:47:37.751Z,101385.69
2022-10-18T09:50:36.649Z,101380.19
2022-10-18T09:53:38.727Z,101387.69
2022-10-18T09:56:11.131Z,101382.41
2022-10-18T09:58:37.628Z,101379.97
2022-10-18T10:01:04.531Z,101368.19
2022-10-18T10:03:31.664Z,101365.28
2022-10-18T10:06:22.603Z,101368.44
2022-10-18T10:09:07.195Z,101365.34
2022-10-18T10:11:40.484Z,101355.03
2022-10-18T10:14:23.032Z,101353.84
2022-10-18T10:16:58.563Z,101358.63
2022-10-18T10:19:32.812Z,101343.72
2022-10-18T10:22:04.086Z,101337.72
2022-10-18T10:24:44.591Z,101332.37
2022-10-18T10:27:43.685Z,101325.09
2022-10-18T10:30:29.472Z,101330.75
2022-10-18T10:32:57.053Z,101309.78
2022-10-18T10:35:59.634Z,101312.28
2022-10-18T10:38:26.999Z,101314.41
2022-10-18T10:40:54.756Z,101316.47
2022-10-18T10:43:39.117Z,101309.00
2022-10-18T10:46:11.739Z,101302.38
2022-10-18T10:48:47.839Z,101299.91
2022-10-18T10:51:18.690Z,101290.16
2022-10-18T10:53:52.636Z,101290.38
2022-10-18T10:56:27.813Z,101284.78
2022-10-18T10:58:57.196Z,101285.19
2022-10-18T11:01:28.504Z,101274.84
2022-10-18T11:03:58.531Z,101271.34
2022-10-18T11:06:45.171Z,101255.53
2022-10-18T11:09:23.201Z,101269.03
2022-10-18T11:12:03.174Z,101267.97
2022-10-18T11:14:36.881Z,101245.75
2022-10-18T11:17:22.656Z,101252.62
2022-10-18T11:20:09.705Z,101245.12
2022-10-18T11:22:44.251Z,101248.44
2022-10-18T11:25:15.112Z,101247.16
2022-10-18T11:28:11.652Z,101242.16
2022-10-18T11:31:19.888Z,101232.78
2022-10-18T11:34:09.811Z,101233.41
2022-10-18T11:36:56.037Z,101226.13
2022-10-18T11:39:51.439Z,101225.31
2022-10-18T11:42:39.066Z,101223.22
2022-10-18T11:45:26.696Z,101205.19
2022-10-18T11:48:13.083Z,101213.88
2022-10-18T11:51:08.977Z,101197.69
2022-10-18T11:54:14.553Z,101205.12
2022-10-18T11:56:49.871Z,101192.00
2022-10-18T11:59:28.612Z,101169.41
2022-10-18T12:02:14.242Z,101165.22
2022-10-18T12:05:22.705Z,101176.81
2022-10-18T12:08:01.092Z,101169.31
2022-10-18T12:10:44.459Z,101170.16
2022-10-18T12:13:42.164Z,101154.78
2022-10-18T12:16:10.947Z,101147.06
2022-10-18T12:18:48.805Z,101140.41
2022-10-18T12:21:24.574Z,101137.31
2022-10-18T12:24:11.209Z,101135.22
2022-10-18T12:26:38.606Z,101137.66
2022-10-18T12:29:18.996Z,101105.75
2022-10-18T12:31:57.257Z,101125.37
2022-10-18T12:34:23.943Z,101126.41
2022-10-18T12:36:53.908Z,101117.28
2022-10-18T12:40:10.659Z,101099.03
2022-10-18T12:42:42.321Z,101115.78
2022-10-18T12:45:21.013Z,101105.63
2022-10-18T12:47:48.169Z,101113.25
2022-10-18T12:50:30.167Z,101092.50
2022-10-18T12:53:05.883Z,101112.59
2022-10-18T12:55:37.223Z,101108.00
2022-10-18T12:58:22.881Z,101096.22
2022-10-18T13:00:49.543Z,101091.41
2022-10-18T13:03:17.293Z,101096.53
2022-10-18T13:05:55.630Z,101088.19
2022-10-18T13:08:36.415Z,101089.41
2022-10-18T13:11:09.229Z,101083.56
2022-10-18T13:13:52.107Z,101087.47
2022-10-18T13:16:27.592Z,101088.28
2022-10-18T13:18:59.568Z,101089.72
2022-10-18T13:21:41.548Z,101080.81
2022-10-18T13:24:24.322Z,101074.56
2022-10-18T13:27:42.386Z,101073.16
2022-10-18T13:30:33.026Z,101054.50
2022-10-18T13:33:13.943Z,101062.56
2022-10-18T13:35:57.770Z,101058.41
2022-10-18T13:38:50.502Z,101055.94
2022-10-18T13:41:20.883Z,101047.44
2022-10-18T13:43:55.043Z,101044.81
2022-10-18T13:46:34.066Z,101048.09
2022-10-18T13:49:38.920Z,101053.72
2022-10-18T13:52:24.201Z,101048.78
2022-10-18T13:55:20.511Z,101024.56
2022-10-18T13:57:53.511Z,101021.94
2022-10-18T14:00:49.146Z,101029.59
2022-10-18T14:03:56.115Z,101031.72
2022-10-18T14:06:26.929Z,101015.75
2022-10-18T14:09:09.571Z,101018.03
2022-10-18T14:11:56.885Z,101005.22
2022-10-18T14:14:41.154Z,101013.09
2022-10-18T14:17:34.837Z,101005.44
2022-10-18T14:20:21.127Z,101004.81
2022-10-18T14:23:11.266Z,100990.78
2022-10-18T14:25:38.945Z,100993.28
2022-10-18T14:28:31.279Z,100989.13
2022-10-18T14:31:06.369Z,100976.31
2022-10-18T14:33:43.904Z,100991.50
2022-10-18T14:36:16.065Z,100981.56
2022-10-18T14:38:47.615Z,100972.53
2022-10-18T14:41:21.101Z,100977.31
2022-10-18T14:43:48.345Z,100979.84
2022-10-18T14:46:27.273Z,100964.53
2022-10-18T14:48:59.075Z,100969.31
2022-10-18T14:51:28.725Z,100975.38
2022-10-18T14:53:56.367Z,100961.69
2022-10-18T14:56:30.282Z,100950.97
2022-10-18T14:59:01.475Z,100950.00
2022-10-18T15:01:31.115Z,100946.50
2022-10-18T15:04:01.050Z,100941.94
2022-10-18T15:06:27.901Z,100946.72
2022-10-18T15:08:57.482Z,100938.44
2022-10-18T15:11:26.267Z,100945.31
2022-10-18T15:14:09.032Z,100944.28
2022-10-18T15:16:38.974Z,100952.41
2022-10-18T15:19:14.921Z,100947.88
2022-10-18T15:22:30.179Z,100942.31
2022-10-18T15:25:12.509Z,100942.09
2022-10-18T15:27:40.270Z,100946.25
2022-10-18T15:30:22.840Z,100940.47
2022-10-18T15:32:55.779Z,100929.53
2022-10-18T15:35:28.741Z,100945.28
2022-10-18T15:37:58.438Z,100939.06
2022-10-18T15:40:28.074Z,100924.22
2022-10-18T15:42:58.213Z,100941.41
2022-10-18T15:45:24.830Z,100920.28
2022-10-18T15:48:06.793Z,100918.59
2022-10-18T15:50:39.591Z,100922.34
2022-10-18T15:53:49.519Z,100917.16
2022-10-18T15:56:27.398Z,100920.06
2022-10-18T15:58:57.027Z,100911.37
2022-10-18T16:01:29.669Z,100918.00
2022-10-18T16:03:56.718Z,100910.34
2022-10-18T16:06:23.427Z,100899.19
2022-10-18T16:08:52.488Z,100901.25
2022-10-18T16:11:21.851Z,100911.41
2022-10-18T16:13:49.843Z,100903.53
2022-10-18T16:16:27.799Z,100894.22
2022-10-18T16:18:55.826Z,100886.34
2022-10-18T16:21:30.641Z,100873.91
2022-10-18T16:23:58.373Z,100864.59
2022-10-18T16:26:26.533Z,100875.59
2022-10-18T16:28:55.842Z,100877.00
2022-10-18T16:31:26.414Z,100868.94
2022-10-18T16:33:54.937Z,100853.47
2022-10-18T16:36:27.458Z,100872.09
2022-10-18T16:38:55.054Z,100860.06
2022-10-18T16:41:22.467Z,100865.66
2022-10-18T16:43:50.326Z,100862.53
2022-10-18T16:46:18.643Z,100862.75
2022-10-18T16:48:46.565Z,100853.25
2022-10-18T16:51:13.391Z,100858.84
2022-10-18T16:53:40.063Z,100846.03
2022-10-18T16:56:16.919Z,100847.88
2022-10-18T16:58:43.966Z,100848.28
2022-10-18T17:01:13.295Z,100845.81
2022-10-18T17:03:40.384Z,100843.53
2022-10-18T17:06:21.205Z,100837.34
2022-10-18T17:08:49.437Z,100833.41
2022-10-18T17:11:17.562Z,100839.59
2022-10-18T17:13:44.701Z,100840.66
2022-10-18T17:16:24.431Z,100831.53
2022-10-18T17:18:51.255Z,100834.41
2022-10-18T17:21:18.458Z,100831.53
2022-10-18T17:23:45.135Z,100828.44
2022-10-18T17:26:28.471Z,100817.06
2022-10-18T17:29:02.991Z,100828.00
2022-10-18T17:31:31.491Z,100816.84
2022-10-18T17:34:01.433Z,100815.41
2022-10-18T17:36:29.760Z,100813.94
2022-10-18T17:38:57.113Z,100805.28
2022-10-18T17:41:24.071Z,100801.12
2022-10-18T17:43:50.719Z,100771.16
2022-10-18T17:46:18.008Z,100774.69
2022-10-18T17:48:45.739Z,100792.66
2022-10-18T17:51:15.124Z,100800.72
2022-10-18T17:53:41.881Z,100792.06
2022-10-18T17:56:10.180Z,100764.75
2022-10-18T17:58:37.104Z,100783.56
2022-10-18T18:01:18.529Z,100781.06
2022-10-18T18:03:47.781Z,100780.88
2022-10-18T18:06:20.100Z,100782.94
2022-10-18T18:08:48.504Z,100782.31
2022-10-18T18:11:17.338Z,100780.03
2022-10-18T18:13:44.027Z,100777.75
2022-10-18T18:16:11.719Z,100775.91
2022-10-18T18:18:38.385Z,100768.03
2022-10-18T18:21:05.242Z,100755.66
2022-10-18T18:23:32.280Z,100752.97
2022-10-18T18:25:59.086Z,100739.50
2022-10-18T18:28:25.795Z,100739.94
2022-10-18T18:30:52.786Z,100713.28
2022-10-18T18:33:19.642Z,100724.63
2022-10-18T18:35:59.460Z,100727.31
2022-10-18T18:38:26.777Z,100715.50
2022-10-18T18:41:09.154Z,100722.72
2022-10-18T18:43:37.131Z,100727.09
2022-10-18T18:46:04.307Z,100716.75
2022-10-18T18:48:33.680Z,100701.87
2022-10-18T18:51:02.139Z,100705.37
2022-10-18T18:53:29.741Z,100710.94
2022-10-18T18:56:05.473Z,100703.09
2022-10-18T18:58:34.149Z,100702.28
2022-10-18T19:01:06.898Z,100698.56
2022-10-18T19:03:34.170Z,100697.53
2022-10-18T19:06:15.704Z,100689.66
2022-10-18T19:08:46.594Z,100699.59
2022-10-18T19:11:17.106Z,100697.31
2022-10-18T19:13:44.347Z,100679.97
2022-10-18T19:16:28.404Z,100680.56
2022-10-18T19:18:55.262Z,100675.41
2022-10-18T19:21:23.542Z,100676.22
2022-10-18T19:23:50.459Z,100685.34
2022-10-18T19:26:44.511Z,100665.91
2022-10-18T19:29:21.721Z,100674.81
2022-10-18T19:31:50.437Z,100658.06
2022-10-18T19:34:20.645Z,100656.63
2022-10-18T19:36:48.815Z,100658.03
2022-10-18T19:39:21.971Z,100659.09
2022-10-18T19:41:51.530Z,100645.03
2022-10-18T19:44:19.889Z,100658.47
2022-10-18T19:46:47.692Z,100650.41
2022-10-18T19:49:14.967Z,100654.75
2022-10-18T19:51:41.909Z,100639.88
2022-10-18T19:54:10.819Z,100633.47
2022-10-18T19:56:37.789Z,100639.88
2022-10-18T19:59:04.841Z,100638.84
2022-10-18T20:01:31.643Z,100623.97
2022-10-18T20:03:59.018Z,100623.56
2022-10-18T20:06:25.850Z,100616.13
2022-10-18T20:08:52.566Z,100615.69
2022-10-18T20:11:22.369Z,100610.75
2022-10-18T20:13:49.603Z,100620.03
2022-10-18T20:16:18.412Z,100615.91
2022-10-18T20:18:47.165Z,100607.63
2022-10-18T20:21:16.711Z,100605.16
2022-10-18T20:23:44.675Z,100608.88
2022-10-18T20:26:20.555Z,100602.87
2022-10-18T20:29:00.612Z,100603.91
2022-10-18T20:31:35.503Z,100596.28
2022-10-18T20:34:04.684Z,100598.12
2022-10-18T20:36:32.212Z,100597.72
2022-10-18T20:38:59.632Z,100585.53
2022-10-18T20:41:32.407Z,100562.59
2022-10-18T20:44:01.811Z,100576.22
2022-10-18T20:46:34.342Z,100549.41
2022-10-18T20:49:02.050Z,100561.38
2022-10-18T20:51:28.851Z,100548.34
2022-10-18T20:53:56.269Z,100555.78
2022-10-18T20:56:27.197Z,100551.03
2022-10-18T20:58:56.541Z,100555.16
2022-10-18T21:01:26.331Z,100551.25
2022-10-18T21:03:54.878Z,100546.72
2022-10-18T21:06:24.639Z,100545.69
2022-10-18T21:09:00.313Z,100546.72
2022-10-18T21:11:29.246Z,100518.44
2022-10-18T21:14:00.051Z,100545.25
2022-10-18T21:16:27.253Z,100534.72
2022-10-18T21:18:54.860Z,100528.75
2022-10-18T21:21:25.033Z,100503.97
2022-10-18T21:23:52.216Z,100515.97
2022-10-18T21:26:24.671Z,100514.94
2022-10-18T21:28:53.095Z,100512.47
2022-10-18T21:31:22.272Z,100515.56
2022-10-18T21:33:53.700Z,100497.97
2022-10-18T21:36:21.229Z,100500.03
2022-10-18T21:38:47.872Z,100508.09
2022-10-18T21:41:16.435Z,100503.12
2022-10-18T21:43:47.155Z,100484.37
2022-10-18T21:46:15.645Z,100504.38
2022-10-18T21:48:44.489Z,100493.22
2022-10-18T21:51:12.711Z,100486.22
2022-10-18T21:53:42.621Z,100477.13
2022-10-18T21:56:15.127Z,100478.78
2022-10-18T21:58:42.813Z,100464.97
2022-10-18T22:01:15.239Z,100444.09
2022-10-18T22:03:43.514Z,100442.84
2022-10-18T22:06:15.434Z,100432.94
2022-10-18T22:08:57.170Z,100429.03
2022-10-18T22:11:27.417Z,100429.25
2022-10-18T22:13:54.989Z,100407.34
2022-10-18T22:16:22.070Z,100413.56
2022-10-18T22:18:49.794Z,100412.94
2022-10-18T22:21:19.316Z,100407.78
2022-10-18T22:23:49.435Z,100410.47
2022-10-18T22:26:19.244Z,100402.63
2022-10-18T22:28:46.777Z,100390.44
2022-10-18T22:31:22.268Z,100401.38
2022-10-18T22:33:54.615Z,100391.91
2022-10-18T22:36:21.554Z,100384.25
2022-10-18T22:38:48.334Z,100383.44
2022-10-18T22:41:15.967Z,100373.97
2022-10-18T22:43:42.671Z,100364.47
2022-10-18T22:46:14.010Z,100365.47
2022-10-18T22:48:41.207Z,100371.06
2022-10-18T22:51:09.073Z,100359.91
2022-10-18T22:53:37.642Z,100357.03
2022-10-18T22:56:05.563Z,100360.31
2022-10-18T22:58:32.574Z,100351.69
2022-10-18T23:01:06.823Z,100340.97
2022-10-18T23:03:34.351Z,100345.69
2022-10-18T23:06:01.036Z,100337.03
2022-10-18T23:08:28.256Z,100337.25
2022-10-18T23:10:58.195Z,100333.09
2022-10-18T23:13:26.412Z,100327.12
2022-10-18T23:15:53.614Z,100327.34
2022-10-18T23:18:20.566Z,100329.81
2022-10-18T23:20:47.195Z,100320.97
2022-10-18T23:23:14.090Z,100299.72
2022-10-18T23:25:41.006Z,100315.16
2022-10-18T23:28:07.632Z,100318.25
2022-10-18T23:30:34.344Z,100295.22
2022-10-18T23:33:01.321Z,100294.34
2022-10-18T23:35:29.341Z,100289.81
2022-10-18T23:37:55.937Z,100293.53
2022-10-18T23:40:22.916Z,100288.37
2022-10-18T23:42:49.486Z,100286.12
2022-10-18T23:45:16.230Z,100286.94
2022-10-18T23:47:43.135Z,100279.31
2022-10-18T23:50:10.251Z,100265.50
2022-10-18T23:52:36.887Z,100279.72
2022-10-18T23:55:04.160Z,100263.03
2022-10-18T23:57:30.966Z,100280.75
2022-10-18T23:59:57.675Z,100271.06
